Time;durP1;ratioP1;P1;durP2;ratioP2;P2;SDS_P1;SDS_P2;PMS_P1;PMS_P2;Temp;Humidity;BMP_temperature;BMP_pressure;BME280_temperature;BME280_humidity;BME280_pressure;Samples;Min_cycle;Max_cycle;Signal;HPM_P1;HPM_P2
2023/10/01 02:49:04;;;;;;;16.42;9.40;;;;;;;9.81;100.00;95171.38;6001547;23;20067;31
2023/10/01 02:59:15;;;;;;;15.57;8.70;;;;;;;9.35;100.00;95180.50;5397827;23;20092;-83
2023/10/01 03:57:19;;;;;;;12.48;9.15;;;;;;;9.16;100.00;95191.09;4922653;29;20072;-83
2023/10/01 04:02:43;;;;;;;11.85;10.40;;;;;;;8.82;100.00;95147.22;4958987;23;20060;-83
2023/10/01 04:05:22;;;;;;;10.65;9.57;;;;;;;8.94;100.00;95187.31;4924408;29;20017;-82
2023/10/01 05:15:08;;;;;;;12.95;9.55;;;;;;;11.76;100.00;95188.06;5796714;23;20085;-87
2023/10/01 05:17:33;;;;;;;10.35;9.10;;;;;;;12.09;100.00;95177.31;4893248;29;20044;-87
2023/10/01 05:19:59;;;;;;;12.00;8.90;;;;;;;12.73;100.00;95177.69;4893427;29;20111;-88
2023/10/01 05:22:26;;;;;;;7.70;6.90;;;;;;;13.09;100.00;95168.22;4892948;29;20099;-88
2023/10/01 05:24:52;;;;;;;8.77;7.80;;;;;;;13.18;100.00;95166.34;4894105;29;20427;-89
2023/10/01 05:27:18;;;;;;;8.57;6.90;;;;;;;13.33;100.00;95163.69;4891844;29;20037;-83
2023/10/01 05:29:45;;;;;;;15.95;7.43;;;;;;;13.64;100.00;95154.69;4893501;29;20024;-83
2023/10/01 05:32:11;;;;;;;37.13;8.90;;;;;;;14.08;100.00;95159.69;4892969;29;20035;-82
2023/10/01 05:34:39;;;;;;;9.02;6.65;;;;;;;14.41;100.00;95154.81;4893231;29;20475;-85
2023/10/01 05:37:12;;;;;;;7.60;6.00;;;;;;;15.30;100.00;95145.28;4893511;29;20040;-82
2023/10/01 05:39:59;;;;;;;11.77;6.10;;;;;;;16.01;100.00;95133.44;4892123;29;20464;-82
2023/10/01 05:42:34;;;;;;;8.90;5.95;;;;;;;16.30;100.00;95143.53;4893259;29;20053;-83
2023/10/01 05:44:59;;;;;;;31.83;8.35;;;;;;;16.68;100.00;95140.31;4892615;29;20037;-82
2023/10/01 05:48:10;;;;;;;13.18;7.30;;;;;;;17.14;100.00;95140.22;4892923;29;20513;-82
2023/10/01 05:50:13;;;;;;;13.27;12.07;;;;;;;17.46;100.00;95143.72;4889609;29;20057;-82
2023/10/01 05:52:40;;;;;;;17.02;11.15;;;;;;;18.04;100.00;95140.00;4891665;29;20028;-83
2023/10/01 05:55:12;;;;;;;9.20;7.55;;;;;;;18.67;93.29;95147.81;4893458;29;20040;-83
2023/10/01 05:57:41;;;;;;;9.32;6.57;;;;;;;19.07;88.04;95156.91;4891681;29;20036;-82
2023/10/01 06:00:17;;;;;;;10.32;5.72;;;;;;;19.69;83.13;95155.00;4893129;29;20080;-82
2023/10/01 06:03:00;;;;;;;10.43;5.40;;;;;;;19.91;82.12;95153.50;4892548;29;20028;-82
2023/10/01 06:05:33;;;;;;;10.23;5.32;;;;;;;20.86;76.59;95149.84;4891503;29;20016;-82
2023/10/01 06:08:12;;;;;;;9.02;5.85;;;;;;;21.80;68.81;95151.28;4893388;29;20063;-84
2023/10/01 06:10:47;;;;;;;9.32;5.97;;;;;;;23.15;61.19;95148.53;4891830;29;20127;-85
2023/10/01 06:13:13;;;;;;;12.13;6.47;;;;;;;24.23;55.95;95155.69;4891605;29;20021;-81
2023/10/01 06:15:39;;;;;;;7.27;6.00;;;;;;;25.53;51.79;95151.63;4892405;29;20051;-82
2023/10/01 06:18:05;;;;;;;6.03;5.22;;;;;;;25.58;49.56;95147.16;4892211;29;20038;-81
2023/10/01 06:20:31;;;;;;;7.03;5.95;;;;;;;26.04;48.48;95144.66;4893151;29;20036;-90
2023/10/01 06:22:59;;;;;;;7.70;5.47;;;;;;;26.62;46.06;95156.69;4891774;29;20093;-82
2023/10/01 06:25:43;;;;;;;9.43;6.15;;;;;;;27.21;44.87;95154.28;4892654;29;20025;-82
2023/10/01 06:28:09;;;;;;;7.90;6.15;;;;;;;27.29;44.23;95161.75;4891549;29;20040;-83
2023/10/01 06:30:40;;;;;;;6.15;5.43;;;;;;;27.14;44.19;95167.06;4891832;29;20044;-82
2023/10/01 06:33:24;;;;;;;8.75;5.25;;;;;;;27.90;43.07;95174.88;4892611;29;20029;-82
2023/10/01 06:38:38;;;;;;;7.70;5.80;;;;;;;27.82;42.23;95186.06;4893002;29;20032;-82
2023/10/01 06:41:06;;;;;;;8.00;5.70;;;;;;;27.55;42.90;95178.47;4891737;29;20047;-82
2023/10/01 06:43:32;;;;;;;11.02;5.68;;;;;;;27.79;42.33;95178.63;4892747;29;20052;-83
2023/10/01 06:45:59;;;;;;;6.70;5.90;;;;;;;28.99;40.57;95189.69;4892030;29;20028;-82
2023/10/01 06:48:27;;;;;;;7.90;5.43;;;;;;;28.82;40.36;95183.94;4891828;29;20415;-82
2023/10/01 06:50:53;;;;;;;10.00;5.60;;;;;;;28.93;40.19;95185.47;4891452;29;20020;-83
2023/10/01 06:53:19;;;;;;;10.27;5.50;;;;;;;28.28;41.05;95190.16;4891167;29;20410;-83
2023/10/01 06:55:47;;;;;;;9.10;5.50;;;;;;;29.12;39.80;95183.69;4892253;29;20040;-81
2023/10/01 06:58:13;;;;;;;8.95;5.72;;;;;;;29.72;38.43;95187.66;4891196;29;20399;-83
2023/10/01 07:00:41;;;;;;;7.07;5.50;;;;;;;29.26;39.20;95182.78;4892765;29;20423;-84
2023/10/01 07:03:22;;;;;;;11.40;5.78;;;;;;;30.15;37.96;95189.25;4891776;29;20029;-87
2023/10/01 07:05:51;;;;;;;7.25;5.20;;;;;;;29.83;38.23;95181.13;4891745;29;20210;-83
2023/10/01 07:08:18;;;;;;;8.48;5.30;;;;;;;29.61;39.15;95188.81;4892558;29;20036;-88
2023/10/01 07:10:46;;;;;;;9.80;5.77;;;;;;;29.54;38.70;95186.50;4890769;29;20029;-82
2023/10/01 07:13:15;;;;;;;9.27;6.07;;;;;;;30.38;38.04;95184.94;4892312;29;20269;-82
2023/10/01 07:15:43;;;;;;;13.10;5.85;;;;;;;30.53;37.86;95187.44;4889412;29;20057;-84
2023/10/01 07:18:19;;;;;;;7.65;5.93;;;;;;;30.51;38.01;95184.25;4892399;29;20503;-84
2023/10/01 07:20:49;;;;;;;7.27;6.03;;;;;;;30.12;38.06;95181.81;4892342;29;20037;-83
2023/10/01 07:23:15;;;;;;;6.63;5.95;;;;;;;31.23;36.92;95174.84;4891480;29;20108;-82
2023/10/01 07:25:43;;;;;;;11.88;7.30;;;;;;;31.03;37.61;95177.06;4892600;29;20025;-82
2023/10/01 07:28:18;;;;;;;10.70;6.20;;;;;;;30.77;37.24;95176.63;4891034;29;20534;-83
2023/10/01 07:30:51;;;;;;;9.82;6.32;;;;;;;30.95;37.65;95178.53;4892018;29;20052;-82
2023/10/01 07:33:17;;;;;;;10.35;5.90;;;;;;;30.93;37.39;95175.31;4891243;29;20056;-84
2023/10/01 07:35:45;;;;;;;9.18;6.40;;;;;;;31.07;37.54;95191.44;4890642;29;20063;-83
2023/10/01 07:38:14;;;;;;;7.88;6.28;;;;;;;30.20;39.22;95197.22;4891840;29;20052;-83
2023/10/01 07:40:59;;;;;;;15.07;7.05;;;;;;;30.22;38.91;95187.03;4890833;29;20033;-84
2023/10/01 07:43:25;;;;;;;13.45;7.10;;;;;;;25.47;50.94;95193.22;4894847;29;20039;-85
2023/10/01 07:46:07;;;;;;;15.57;8.18;;;;;;;24.07;58.37;95189.13;4894378;29;20036;-83
2023/10/01 07:48:33;;;;;;;15.23;8.25;;;;;;;23.73;61.32;95194.81;4894277;29;20029;-82
2023/10/01 07:51:02;;;;;;;17.10;8.27;;;;;;;23.75;61.64;95190.88;4894932;29;20096;-82
2023/10/01 07:53:32;;;;;;;14.65;8.57;;;;;;;24.04;62.69;95191.47;4894071;29;20038;-85
2023/10/01 07:56:07;;;;;;;10.75;8.85;;;;;;;24.25;61.71;95188.00;4895349;29;20487;-82
2023/10/01 07:58:47;;;;;;;15.07;8.20;;;;;;;23.69;63.03;95191.88;4894222;29;20024;-83
2023/10/01 08:03:56;;;;;;;14.80;9.10;;;;;;;23.65;64.08;95193.41;4894811;29;20055;-83
2023/10/01 08:06:29;;;;;;;10.52;9.10;;;;;;;23.88;64.11;95187.84;4894676;29;20480;-85
2023/10/01 08:08:59;;;;;;;11.52;8.35;;;;;;;24.17;62.48;95196.41;4894882;29;20040;-85
2023/10/01 08:14:11;;;;;;;11.77;7.80;;;;;;;24.06;62.66;95192.00;4894133;29;20427;-88
2023/10/01 08:16:47;;;;;;;9.48;7.95;;;;;;;24.24;62.03;95194.34;4892628;29;20052;-82
2023/10/01 08:19:22;;;;;;;20.13;8.93;;;;;;;24.53;61.74;95195.69;4893027;29;20024;-82
2023/10/01 08:21:51;;;;;;;17.25;8.00;;;;;;;24.69;59.99;95190.53;4895325;29;20459;-82
2023/10/01 08:24:23;;;;;;;13.82;8.07;;;;;;;24.41;60.73;95189.75;4893616;29;20028;-81
2023/10/01 08:26:57;;;;;;;10.77;8.57;;;;;;;24.70;60.53;95192.13;4894776;29;20044;-83
2023/10/01 08:29:28;;;;;;;10.95;7.55;;;;;;;24.66;60.87;95187.31;4894020;29;20032;-82
2023/10/01 08:34:27;;;;;;;20.80;9.02;;;;;;;24.60;61.36;95196.28;4893127;29;20161;-84
2023/10/01 08:36:54;;;;;;;12.52;8.52;;;;;;;24.39;60.88;95191.88;4893484;29;20407;-85
2023/10/01 08:39:33;;;;;;;13.00;8.50;;;;;;;24.59;60.71;95199.97;4894888;29;20027;-83
2023/10/01 08:41:59;;;;;;;16.20;8.68;;;;;;;24.94;59.60;95188.91;4891980;29;20131;-81
2023/10/01 08:44:34;;;;;;;18.10;8.50;;;;;;;25.13;59.47;95199.91;4894671;29;20099;-81
2023/10/01 08:47:00;;;;;;;12.75;7.88;;;;;;;25.43;57.82;95191.38;4892505;29;20171;-83
2023/10/01 08:49:31;;;;;;;12.57;8.27;;;;;;;25.15;58.20;95187.19;4893953;29;20051;-81
2023/10/01 08:54:48;;;;;;;10.57;8.48;;;;;;;24.93;59.32;95191.81;4892572;29;20043;-82
2023/10/01 08:57:36;;;;;;;11.07;8.20;;;;;;;25.07;59.31;95187.69;4893134;29;20035;-87
2023/10/01 09:00:14;;;;;;;16.20;8.52;;;;;;;25.56;58.16;95185.59;4893531;29;20032;-84
2023/10/01 09:02:39;;;;;;;15.20;7.73;;;;;;;25.80;57.31;95181.47;4892897;29;20131;-82
2023/10/01 09:05:08;;;;;;;11.32;8.15;;;;;;;25.78;56.55;95188.91;4894225;29;20854;-83
2023/10/01 09:07:48;;;;;;;;;;;;;;;25.71;56.53;95188.34;4893346;29;20044;-81
2023/10/01 09:10:17;;;;;;;13.70;8.07;;;;;;;24.76;56.08;95180.50;4894187;29;19916;-82
2023/10/01 09:12:46;;;;;;;13.32;7.82;;;;;;;25.44;60.33;95180.47;4892752;29;20028;-81
2023/10/01 09:15:27;;;;;;;8.57;7.85;;;;;;;26.03;56.56;95174.91;4893514;29;20503;-84
2023/10/01 09:17:56;;;;;;;15.50;6.97;;;;;;;24.91;58.11;95172.72;4892747;29;20056;-84
2023/10/01 09:20:42;;;;;;;10.57;7.82;;;;;;;25.42;55.72;95173.84;4891875;29;20032;-83
2023/10/01 09:23:08;;;;;;;11.90;7.45;;;;;;;26.39;55.41;95165.19;4893740;29;20051;-81
2023/10/01 09:25:39;;;;;;;14.82;8.07;;;;;;;26.22;54.86;95170.75;4892541;29;20487;-83
2023/10/01 09:28:20;;;;;;;14.15;7.13;;;;;;;26.44;53.48;95176.63;4892485;29;20388;-83
2023/10/01 09:31:17;;;;;;;12.95;7.75;;;;;;;26.35;53.73;95164.13;4893933;29;20054;-82
2023/10/01 09:33:43;;;;;;;12.52;7.28;;;;;;;26.39;51.26;95158.03;4892135;29;20036;-84
2023/10/01 09:36:08;;;;;;;14.18;7.53;;;;;;;26.55;52.10;95161.50;4893622;29;20033;-82
2023/10/01 09:38:57;;;;;;;9.63;7.07;;;;;;;26.23;51.55;95164.38;4891924;29;20035;-85
2023/10/01 09:41:28;;;;;;;10.25;7.75;;;;;;;25.40;53.62;95175.94;4892832;29;20123;-81
2023/10/01 09:43:58;;;;;;;9.95;7.55;;;;;;;25.44;52.83;95167.22;4893392;29;20104;-82
2023/10/01 09:46:25;;;;;;;17.38;8.10;;;;;;;26.01;50.51;95155.78;4890313;29;20602;-81
2023/10/01 09:49:00;;;;;;;9.95;7.00;;;;;;;25.97;51.41;95168.00;4893404;29;20033;-83
2023/10/01 09:51:31;;;;;;;8.00;6.82;;;;;;;26.12;50.37;95163.53;4890466;29;20053;-85
2023/10/01 09:54:02;;;;;;;8.45;7.07;;;;;;;25.90;50.40;95162.94;4893254;29;20037;-82
2023/10/01 09:56:46;;;;;;;10.43;7.03;;;;;;;26.61;49.63;95160.44;4891175;29;20037;-82
2023/10/01 09:59:13;;;;;;;9.75;7.75;;;;;;;26.94;49.53;95164.44;4891784;29;20503;-84
2023/10/01 10:01:42;;;;;;;8.25;7.13;;;;;;;26.93;48.28;95158.31;4893455;29;20065;-84
2023/10/01 10:04:10;;;;;;;7.57;6.78;;;;;;;26.94;48.87;95162.56;4890276;29;20118;-82
2023/10/01 10:06:39;;;;;;;9.85;6.88;;;;;;;26.69;49.09;95158.03;4892727;29;20029;-82
2023/10/01 10:09:25;;;;;;;8.88;6.65;;;;;;;26.83;48.05;95150.34;4891970;29;20087;-80
2023/10/01 10:11:50;;;;;;;10.27;7.30;;;;;;;26.67;46.37;95138.91;4891575;29;20031;-81
2023/10/01 10:14:24;;;;;;;13.48;7.50;;;;;;;26.85;47.89;95136.78;4893556;29;20024;-81
2023/10/01 10:16:57;;;;;;;10.52;7.25;;;;;;;27.05;48.57;95134.09;4891519;29;20507;-84
2023/10/01 10:19:23;;;;;;;10.80;7.57;;;;;;;26.86;48.45;95130.41;4892411;29;20107;-86
2023/10/01 10:24:32;;;;;;;9.82;6.60;;;;;;;25.76;50.97;95135.25;4892635;29;20032;-82
2023/10/01 10:27:01;;;;;;;11.15;7.35;;;;;;;26.15;49.93;95128.47;4891067;29;20029;-85
2023/10/01 10:29:59;;;;;;;12.20;6.50;;;;;;;26.50;48.40;95117.09;4890404;29;20025;-84
2023/10/01 10:32:30;;;;;;;11.50;7.57;;;;;;;26.48;49.42;95116.56;4892870;29;20143;-85
2023/10/01 10:35:06;;;;;;;10.20;7.10;;;;;;;26.15;49.67;95112.53;4891857;29;20033;-82
2023/10/01 10:37:38;;;;;;;14.57;7.07;;;;;;;25.98;49.53;95117.25;4892034;29;20032;-84
2023/10/01 10:40:13;;;;;;;8.80;7.05;;;;;;;26.50;49.42;95111.78;4892541;29;20060;-84
2023/10/01 10:42:39;;;;;;;10.98;7.20;;;;;;;26.42;48.25;95103.56;4890916;29;20040;-81
2023/10/01 10:45:20;;;;;;;11.50;6.35;;;;;;;26.56;49.56;95101.94;4891626;29;20055;-86
2023/10/01 10:48:04;;;;;;;10.52;7.57;;;;;;;26.99;47.93;95097.94;4890484;29;20040;-83
2023/10/01 10:50:45;;;;;;;9.90;6.97;;;;;;;27.27;48.99;95104.50;4892739;29;20028;-84
2023/10/01 10:53:39;;;;;;;12.32;7.25;;;;;;;26.81;48.19;95101.16;4892658;29;20036;-85
2023/10/01 10:56:07;;;;;;;8.93;7.38;;;;;;;26.32;49.19;95096.38;4888420;29;20107;-82
2023/10/01 10:58:53;;;;;;;8.43;7.30;;;;;;;26.38;49.83;95095.31;4892544;29;20419;-82
2023/10/01 11:01:19;;;;;;;11.10;7.47;;;;;;;26.68;49.50;95091.84;4892243;29;20039;-82
2023/10/01 11:03:49;;;;;;;13.63;8.77;;;;;;;27.20;48.38;95080.84;4891976;29;20376;-83
2023/10/01 11:06:19;;;;;;;9.60;7.18;;;;;;;26.88;49.14;95085.72;4892690;29;20028;-80
2023/10/01 11:08:52;;;;;;;10.10;7.07;;;;;;;26.82;48.78;95079.63;4889120;29;20035;-82
2023/10/01 11:11:21;;;;;;;11.07;7.20;;;;;;;26.93;49.33;95072.44;4893074;29;20024;-81
2023/10/01 11:13:46;;;;;;;13.65;7.63;;;;;;;26.52;50.26;95072.44;4890842;29;20029;-85
2023/10/01 11:16:15;;;;;;;10.13;7.75;;;;;;;26.17;50.80;95075.09;4892037;29;20404;-81
2023/10/01 11:18:41;;;;;;;;;;;;;;;25.88;51.83;95072.09;4894993;29;20040;-85
2023/10/01 11:21:11;;;;;;;11.68;7.43;;;;;;;25.90;52.70;95071.84;4895863;29;20336;-82
2023/10/01 11:23:39;;;;;;;8.32;7.50;;;;;;;25.64;52.24;95060.38;4896510;29;20032;-82
2023/10/01 11:26:06;;;;;;;14.02;9.13;;;;;;;25.55;53.37;95065.41;4894978;29;20032;-80
2023/10/01 11:28:41;;;;;;;8.48;7.57;;;;;;;25.07;54.14;95058.56;4895605;29;20039;-82
2023/10/01 11:31:31;;;;;;;9.00;8.15;;;;;;;25.10;54.55;95062.53;4894167;29;20515;-83
2023/10/01 11:34:05;;;;;;;8.98;7.78;;;;;;;25.16;55.31;95059.66;4894245;29;20035;-82
2023/10/01 11:36:37;;;;;;;8.25;7.28;;;;;;;25.26;54.46;95066.06;4895745;29;20499;-82
2023/10/01 11:39:03;;;;;;;10.30;6.90;;;;;;;25.37;52.39;95055.22;4893795;29;20033;-84
2023/10/01 11:41:40;;;;;;;10.18;7.50;;;;;;;25.31;52.95;95061.56;4894441;29;20040;-83
2023/10/01 11:44:06;;;;;;;9.85;8.00;;;;;;;24.90;54.16;95062.44;4893987;29;20039;-83
2023/10/01 11:49:34;;;;;;;11.63;7.80;;;;;;;24.58;54.39;95059.81;4895303;29;20044;-85
2023/10/01 11:52:25;;;;;;;9.50;7.73;;;;;;;24.61;55.02;95054.00;4892700;29;20025;-85
2023/10/01 11:54:54;;;;;;;9.00;5.85;;;;;;;24.53;53.46;95065.09;4895245;29;20321;-83
2023/10/01 11:57:23;;;;;;;12.73;6.70;;;;;;;24.19;53.79;95061.91;4892506;29;20491;-83
2023/10/01 11:59:56;;;;;;;7.85;6.18;;;;;;;23.98;54.34;95060.94;4895191;29;20060;-87
2023/10/01 12:02:43;;;;;;;6.68;6.10;;;;;;;23.98;54.11;95055.63;4893958;29;20491;-83
2023/10/01 12:05:13;;;;;;;7.00;6.15;;;;;;;23.58;55.06;95057.88;4893597;29;20499;-82
2023/10/01 12:07:43;;;;;;;7.15;6.45;;;;;;;23.54;55.79;95054.91;4893566;29;20036;-82
2023/10/01 12:10:31;;;;;;;8.18;6.38;;;;;;;23.48;56.06;95058.56;4892502;29;20035;-84
2023/10/01 12:12:56;;;;;;;10.30;7.20;;;;;;;23.39;57.56;95059.22;4893340;29;20491;-85
2023/10/01 12:15:33;;;;;;;14.10;7.65;;;;;;;23.38;58.91;95057.59;4894296;29;20056;-85
2023/10/01 12:18:07;;;;;;;7.13;6.43;;;;;;;23.14;57.06;95062.38;4893547;29;20428;-82
2023/10/01 12:20:33;;;;;;;10.05;6.85;;;;;;;23.37;58.66;95054.19;4894090;29;20029;-82
2023/10/01 12:23:13;;;;;;;9.63;6.82;;;;;;;23.32;59.50;95042.72;4893315;29;20487;-82
2023/10/01 12:25:53;;;;;;;9.18;6.70;;;;;;;23.14;59.22;95043.88;4893425;29;20043;-83
2023/10/01 12:28:27;;;;;;;7.72;6.90;;;;;;;23.34;59.09;95036.16;4893470;29;20036;-84
2023/10/01 12:31:00;;;;;;;8.30;7.55;;;;;;;23.21;59.58;95035.75;4893226;29;20076;-83
2023/10/01 12:33:38;;;;;;;13.45;7.25;;;;;;;23.13;60.43;95038.81;4894604;29;20053;-83
2023/10/01 12:36:31;;;;;;;7.80;7.10;;;;;;;23.03;61.23;95044.78;4892934;29;20464;-82
2023/10/01 12:41:56;;;;;;;9.20;6.90;;;;;;;22.89;62.16;95039.03;4895017;29;20039;-83
2023/10/01 12:44:28;;;;;;;8.43;7.47;;;;;;;23.16;61.82;95033.03;4892464;29;20036;-83
2023/10/01 12:47:07;;;;;;;9.13;7.38;;;;;;;23.35;62.01;95031.66;4894799;29;20046;-82
2023/10/01 12:49:36;;;;;;;9.30;6.97;;;;;;;23.35;60.86;95023.72;4893997;29;20390;-83
2023/10/01 12:52:04;;;;;;;9.23;6.75;;;;;;;23.44;58.96;95030.19;4894173;29;20104;-82
2023/10/01 12:54:36;;;;;;;8.35;6.65;;;;;;;23.42;58.10;95029.66;4892381;29;20041;-83
2023/10/01 12:57:02;;;;;;;7.47;6.68;;;;;;;23.11;58.34;95028.50;4892947;29;20036;-85
2023/10/01 12:59:41;;;;;;;11.73;6.75;;;;;;;22.98;58.93;95034.16;4893891;29;20095;-84
2023/10/01 13:02:22;;;;;;;;;;;;;;;22.73;61.45;95039.91;4890925;29;20549;-83
2023/10/01 13:05:16;;;;;;;11.15;7.47;;;;;;;22.64;62.80;95036.03;4892319;29;19919;-81
2023/10/01 13:07:47;;;;;;;9.18;7.00;;;;;;;22.50;64.32;95034.78;4888260;29;20048;-85
2023/10/01 13:10:13;;;;;;;28.10;9.43;;;;;;;22.51;66.08;95034.53;4888325;29;20025;-80
2023/10/01 13:12:53;;;;;;;19.95;7.95;;;;;;;22.38;65.58;95034.88;4890823;29;20058;-84
2023/10/01 13:15:30;;;;;;;11.02;7.35;;;;;;;22.21;66.02;95028.81;4888586;29;20077;-85
2023/10/01 13:18:00;;;;;;;27.92;8.55;;;;;;;22.28;67.73;95032.09;4887589;29;20040;-84
2023/10/01 13:20:28;;;;;;;14.77;7.72;;;;;;;22.22;66.67;95038.31;4893801;29;20146;-88
2023/10/01 13:23:15;;;;;;;8.27;7.47;;;;;;;22.21;67.85;95036.75;4887444;29;20138;-85
2023/10/01 13:25:46;;;;;;;13.13;8.00;;;;;;;22.12;68.68;95037.38;4882509;29;20108;-87
2023/10/01 13:28:19;;;;;;;10.02;8.27;;;;;;;22.17;68.96;95032.97;4880795;29;20108;-85
2023/10/01 13:33:25;;;;;;;8.98;7.90;;;;;;;22.20;69.88;95037.78;4882508;29;20033;-89
2023/10/01 13:36:12;;;;;;;15.35;8.00;;;;;;;22.19;72.36;95043.28;4886488;29;20032;-86
2023/10/01 14:08:45;;;;;;;16.52;11.95;;;;;;;21.12;94.39;95042.41;4864446;29;20553;-82
2023/10/01 14:11:12;;;;;;;18.63;12.15;;;;;;;21.18;94.77;95039.63;4877195;29;20127;-85
2023/10/01 14:13:41;;;;;;;13.63;11.50;;;;;;;21.14;95.58;95046.41;4876840;29;20123;-83
2023/10/01 14:16:40;;;;;;;14.77;11.30;;;;;;;21.06;95.35;95043.31;4873415;29;20151;-80
2023/10/01 14:19:15;;;;;;;12.55;10.40;;;;;;;21.13;95.14;95044.78;4881030;29;20076;-79
2023/10/01 14:21:41;;;;;;;13.95;11.30;;;;;;;20.98;95.71;95041.84;4882843;29;20040;-80
2023/10/01 14:24:23;;;;;;;15.05;11.40;;;;;;;21.01;96.01;95047.44;4879625;29;20036;-82
2023/10/01 14:26:50;;;;;;;13.32;11.15;;;;;;;20.85;97.76;95050.78;4881776;29;20045;-87
2023/10/01 14:29:31;;;;;;;12.20;10.85;;;;;;;20.83;99.36;95044.16;4877677;29;20036;-84
2023/10/01 14:31:57;;;;;;;15.45;11.50;;;;;;;21.04;98.59;95041.69;4885401;29;20431;-83
2023/10/01 14:34:22;;;;;;;13.70;11.60;;;;;;;21.32;96.92;95040.94;4883842;29;20039;-81
2023/10/01 14:36:54;;;;;;;17.02;11.75;;;;;;;21.23;97.91;95045.00;4881524;29;20369;-89
2023/10/01 14:39:29;;;;;;;17.92;11.65;;;;;;;21.34;97.35;95046.00;4883088;29;20037;-83
2023/10/01 14:41:56;;;;;;;12.73;11.38;;;;;;;21.25;97.88;95048.22;4882638;29;20115;-86
2023/10/01 14:44:25;;;;;;;14.63;11.98;;;;;;;21.20;98.64;95056.00;4880361;29;20044;-86
2023/10/01 14:46:52;;;;;;;13.63;11.98;;;;;;;21.23;99.04;95049.47;4877074;29;20579;-85
2023/10/01 14:49:19;;;;;;;17.40;12.48;;;;;;;21.11;100.00;95053.97;4884782;29;20071;-84
2023/10/01 14:51:54;;;;;;;24.85;13.77;;;;;;;20.93;100.00;95054.91;4879768;29;20119;-81
2023/10/01 14:54:20;;;;;;;17.70;13.55;;;;;;;20.94;100.00;95054.66;4883233;29;20039;-85
2023/10/01 14:57:04;;;;;;;15.13;13.13;;;;;;;20.86;100.00;95055.03;4889975;29;20036;-85
2023/10/01 14:59:32;;;;;;;16.17;14.25;;;;;;;20.79;100.00;95059.63;4888539;29;20040;-84
2023/10/01 15:01:58;;;;;;;14.90;13.45;;;;;;;20.68;100.00;95063.03;4888693;29;20521;-85
2023/10/01 15:04:29;;;;;;;20.30;14.32;;;;;;;20.54;100.00;95060.91;4881964;29;20029;-84
2023/10/01 15:07:00;;;;;;;18.08;15.05;;;;;;;20.38;100.00;95065.81;4888578;29;20093;-90
2023/10/01 15:09:34;;;;;;;19.17;15.18;;;;;;;20.28;100.00;95070.84;4889808;29;20037;-87
2023/10/01 15:12:01;;;;;;;18.50;15.05;;;;;;;20.28;100.00;95068.22;4888129;29;20029;-84
2023/10/01 15:14:28;;;;;;;25.67;15.50;;;;;;;20.21;100.00;95064.03;4884456;29;20048;-85
2023/10/01 15:16:54;;;;;;;21.20;14.57;;;;;;;20.07;100.00;95071.34;4888254;29;20052;-85
2023/10/01 15:19:25;;;;;;;17.00;15.27;;;;;;;20.07;100.00;95066.06;4888575;29;20032;-88
2023/10/01 15:22:08;;;;;;;21.38;15.35;;;;;;;19.93;100.00;95070.75;4889761;29;20028;-81
2023/10/01 15:24:42;;;;;;;20.45;15.55;;;;;;;19.88;100.00;95070.63;4888182;29;20041;-86
2023/10/01 15:27:12;;;;;;;24.77;16.25;;;;;;;19.81;100.00;95077.78;4890277;29;20120;-83
2023/10/01 15:29:42;;;;;;;19.85;16.38;;;;;;;19.69;100.00;95079.59;4888624;29;20075;-87
2023/10/01 15:32:16;;;;;;;19.23;16.67;;;;;;;19.74;100.00;95084.19;4888594;29;20032;-87
2023/10/01 15:34:42;;;;;;;21.40;17.13;;;;;;;19.63;100.00;95087.56;4890007;29;20473;-88
2023/10/01 15:37:11;;;;;;;19.33;16.80;;;;;;;19.54;100.00;95089.72;4889047;29;20474;-91
2023/10/01 15:39:38;;;;;;;18.23;16.30;;;;;;;19.44;100.00;95087.63;4891004;29;20069;-89
2023/10/01 15:42:12;;;;;;;20.83;16.25;;;;;;;19.38;100.00;95088.47;4887060;29;20025;-84
2023/10/01 15:44:43;;;;;;;19.27;17.08;;;;;;;19.39;100.00;95086.66;4889562;29;20037;-94
2023/10/01 15:50:04;;;;;;;20.45;18.25;;;;;;;19.25;100.00;95093.88;4889088;29;20193;-88
2023/10/01 15:52:37;;;;;;;21.65;18.35;;;;;;;19.32;100.00;95093.81;4890992;29;20037;-84
2023/10/01 15:55:06;;;;;;;21.45;19.23;;;;;;;19.24;100.00;95091.47;4889127;29;20044;-88
2023/10/01 15:57:32;;;;;;;28.90;18.92;;;;;;;19.14;100.00;95099.06;4890853;29;20056;-92
2023/10/01 16:00:25;;;;;;;24.02;18.27;;;;;;;19.05;100.00;95098.56;4888867;29;20044;-92
2023/10/01 16:03:01;;;;;;;20.05;18.00;;;;;;;18.95;100.00;95093.00;4890110;29;20075;-91
2023/10/01 16:05:28;;;;;;;26.02;19.23;;;;;;;18.93;100.00;95095.06;4890740;29;20060;-88
2023/10/01 16:07:57;;;;;;;20.60;17.60;;;;;;;18.80;100.00;95095.19;4887797;29;20036;-89
2023/10/01 16:10:23;;;;;;;23.73;19.65;;;;;;;18.82;100.00;95103.66;4890421;29;20142;-85
2023/10/01 16:12:48;;;;;;;20.55;18.23;;;;;;;18.75;100.00;95113.44;4888542;29;20046;-87
2023/10/01 16:15:15;;;;;;;22.23;19.00;;;;;;;18.72;100.00;95117.28;4890426;29;20074;-87
2023/10/01 16:17:41;;;;;;;22.30;18.95;;;;;;;18.70;100.00;95121.94;4888823;29;20032;-93
2023/10/01 16:20:08;;;;;;;21.65;19.35;;;;;;;18.60;100.00;95118.19;4889351;29;20128;-90
2023/10/01 16:22:34;;;;;;;21.52;19.33;;;;;;;18.65;100.00;95115.75;4889385;29;20088;-93
2023/10/01 16:25:02;;;;;;;22.90;20.42;;;;;;;18.63;100.00;95118.56;4886715;29;20036;-86
2023/10/01 16:27:37;;;;;;;21.90;19.70;;;;;;;18.58;100.00;95126.31;4886039;29;20494;-89
2023/10/01 16:30:17;;;;;;;22.88;20.60;;;;;;;18.56;100.00;95123.06;4888206;29;20063;-91
2023/10/01 16:32:50;;;;;;;25.33;21.90;;;;;;;18.33;100.00;95128.88;4885162;29;20517;-83
2023/10/01 16:35:27;;;;;;;26.40;22.65;;;;;;;18.36;100.00;95127.69;4882257;29;20786;-86
2023/10/01 16:37:56;;;;;;;29.02;24.08;;;;;;;18.29;100.00;95129.53;4880934;29;20052;-88
2023/10/01 16:40:25;;;;;;;;;;;;;;;18.24;100.00;95130.16;4887695;29;20036;-85
2023/10/01 16:42:55;;;;;;;34.13;23.30;;;;;;;18.25;100.00;95134.41;4875047;29;20100;-84
2023/10/01 16:45:29;;;;;;;30.38;23.05;;;;;;;18.11;100.00;95138.13;4886644;29;20075;-89
2023/10/01 16:47:56;;;;;;;26.85;23.98;;;;;;;18.07;100.00;95146.66;4889024;29;20076;-87
2023/10/01 16:53:30;;;;;;;27.25;23.77;;;;;;;17.96;100.00;95153.34;4887787;29;20410;-85
2023/10/01 16:55:57;;;;;;;26.08;22.75;;;;;;;17.85;100.00;95160.06;4887486;29;20016;-87
2023/10/01 16:58:33;;;;;;;27.60;24.77;;;;;;;17.84;100.00;95163.72;4888835;29;20425;-85
2023/10/01 17:01:19;;;;;;;30.48;23.58;;;;;;;17.88;100.00;95159.63;4888828;29;20043;-91
2023/10/01 17:03:55;;;;;;;33.47;23.98;;;;;;;17.78;100.00;95169.00;4887079;29;20031;-88
2023/10/01 17:06:25;;;;;;;25.38;21.77;;;;;;;17.84;100.00;95166.34;4889533;29;20032;-87
2023/10/01 17:09:11;;;;;;;30.77;23.48;;;;;;;17.90;100.00;95169.94;4887875;29;20108;-90
2023/10/01 17:11:39;;;;;;;27.27;23.85;;;;;;;17.97;100.00;95168.06;4886984;29;20063;-90
2023/10/01 17:14:11;;;;;;;26.65;23.80;;;;;;;18.00;100.00;95172.09;4874135;29;20048;-86
2023/10/01 17:16:44;;;;;;;29.92;24.30;;;;;;;18.00;100.00;95177.34;4885635;29;20049;-89
2023/10/01 17:19:11;;;;;;;30.15;24.40;;;;;;;17.98;100.00;95169.66;4888716;29;20051;-90
2023/10/01 17:21:43;;;;;;;27.52;23.67;;;;;;;18.00;100.00;95175.53;4883021;29;20025;-91
2023/10/01 17:24:21;;;;;;;29.88;25.38;;;;;;;17.96;100.00;95174.31;4874090;29;20088;-83
2023/10/01 17:26:51;;;;;;;24.25;21.63;;;;;;;17.82;100.00;95170.16;4873126;29;20567;-92
2023/10/01 17:29:23;;;;;;;;;;;;;;;17.87;100.00;95184.25;4887955;29;20037;-78
2023/10/01 17:31:55;;;;;;;33.47;25.55;;;;;;;17.87;100.00;95192.13;4887200;29;19919;-85
2023/10/01 17:34:28;;;;;;;28.40;24.70;;;;;;;17.80;100.00;95195.78;4887238;29;20092;-90
2023/10/01 17:37:07;;;;;;;28.75;25.50;;;;;;;17.75;100.00;95191.19;4884280;29;20111;-91
2023/10/01 17:39:33;;;;;;;29.00;25.95;;;;;;;17.85;100.00;95199.38;4870473;29;20104;-90
2023/10/01 17:42:01;;;;;;;27.33;23.98;;;;;;;17.76;100.00;95199.81;4889436;29;20036;-91
2023/10/01 17:44:29;;;;;;;28.45;25.55;;;;;;;17.77;100.00;95204.88;4886655;29;20079;-89
2023/10/01 17:46:59;;;;;;;27.65;24.92;;;;;;;17.75;100.00;95206.91;4886245;29;20037;-87
2023/10/01 17:49:28;;;;;;;43.58;25.30;;;;;;;17.83;100.00;95206.66;4886647;29;20040;-86